Flight Track Log - Related Links

Times and Time Zones

All times are in EDT time to prevent confusion due to time zone crossing. See the SWA2383 flight status page for this flight to view local times or setup timezone preferences in your user account.

Time Position Orientation Groundspeed Altitude Reporting Facility
EDT Latitude Longitude Course Direction KTS MPH feet Rate Location/Type
Sat 02:48:45 PM 41.2200 -95.8978 185° South 233 268 3,100  Level Minneapolis Center
Sat 02:49:10 PM 41.1994 -95.9211 221° Southwest 235 270 3,000 1,300 Descending Minneapolis Center
Sat 02:49:45 PM 41.1767 -95.9692 238° Southwest 275 316 4,400 2,852 Climbing Minneapolis Center
Sat 02:50:11 PM 41.1581 -96.0031 234° Southwest 255 293 5,900 3,477 Climbing Minneapolis Center
Sat 02:51:13 PM 41.1147 -96.0789 233° Southwest 258 297 9,500 2,683 Climbing Minneapolis Center
Sat 02:52:14 PM 41.0789 -96.1678 242° Southwest 266 306 11,400 2,341 Climbing Minneapolis Center
Sat 02:53:16 PM 41.0344 -96.2739 241° Southwest 312 359 14,300 2,780 Climbing Minneapolis Center
Sat 02:54:17 PM 40.9872 -96.3872 241° Southwest 340 391 17,100 2,488 Climbing Minneapolis Center
Sat 02:55:19 PM 40.9369 -96.5064 241° Southwest 360 414 19,400 2,537 Climbing Minneapolis Center
Sat 02:56:20 PM 40.8847 -96.6286 241° Southwest 375 432 22,300 2,634 Climbing Minneapolis Center
Sat 02:57:22 PM 40.8325 -96.7508 241° Southwest 379 436 24,800 2,195 Climbing Minneapolis Center
Sat 02:58:23 PM 40.7781 -96.8772 240° Southwest 389 448 26,800 1,869 Climbing Minneapolis Center
Sat 02:59:24 PM 40.7239 -97.0056 241° Southwest 397 457 28,600 1,951 Climbing Minneapolis Center
Sat 03:00:26 PM 40.6556 -97.1628 240° Southwest 408 470 30,800 1,854 Climbing Minneapolis Center
Sat 03:01:27 PM 40.5989 -97.2906 240° Southwest 407 468 32,400 1,721 Climbing Minneapolis Center
Sat 03:02:28 PM 40.5394 -97.4275 240° Southwest 406 467 34,300 1,659 Climbing Minneapolis Center
Sat 03:03:30 PM 40.4833 -97.5569 240° Southwest 406 467 35,800 1,317 Climbing Minneapolis Center
Sat 03:04:31 PM 40.4381 -97.6597 240° Southwest 405 466 37,000 1,073 Climbing Minneapolis Center
Sat 03:05:33 PM 40.3706 -97.8133 240° Southwest 404 465 38,000 488 Climbing Minneapolis Center
Sat 03:06:34 PM 40.3125 -97.9442 240° Southwest 409 471 38,000  Level Minneapolis Center
Sat 03:07:35 PM 40.2536 -98.0744 239° Southwest 413 475 38,000  Level Minneapolis Center
Sat 03:08:37 PM 40.1964 -98.2028 240° Southwest 409 471 38,000  Level Minneapolis Center
Sat 03:09:38 PM 40.1378 -98.3314 239° Southwest 410 472 38,000  Level Minneapolis Center
Sat 03:10:39 PM 40.0797 -98.4597 239° Southwest 408 470 38,000  Level Minneapolis Center
Sat 03:11:41 PM 40.0222 -98.5872 240° Southwest 407 468 38,000  Level Minneapolis Center
Sat 03:12:54 PM 39.9642 -98.7139 239° Southwest 407 468 38,000  Level Minneapolis Center
Sat 03:13:55 PM 39.8953 -98.8675 240° Southwest 407 468 38,000  Level Minneapolis Center
Sat 03:14:36 PM 39.8481 -98.9719 240° Southwest 411 473 38,000  Level Denver Center
Sat 03:15:38 PM 39.7897 -99.0967 239° Southwest 405 466 38,000  Level Denver Center
Sat 03:16:39 PM 39.7317 -99.2239 239° Southwest 407 468 38,000  Level Denver Center
Sat 03:17:41 PM 39.6725 -99.3503 239° Southwest 407 468 38,000  Level Denver Center
Sat 03:18:42 PM 39.6136 -99.4767 239° Southwest 408 470 38,000  Level Denver Center
Sat 03:19:44 PM 39.5550 -99.6017 239° Southwest 406 467 38,000  Level Denver Center
Sat 03:20:45 PM 39.4969 -99.7264 239° Southwest 404 465 38,000  Level Denver Center
Sat 03:21:47 PM 39.4328 -99.8697 240° Southwest 405 466 38,000  Level Denver Center
Sat 03:22:48 PM 39.3892 -99.9958 246° West 403 464 38,000  Level Denver Center
Sat 03:23:50 PM 39.3350 -100.1428 245° Southwest 404 465 38,000  Level Denver Center
Sat 03:24:51 PM 39.2894 -100.2694 245° Southwest 406 467 38,000 197 Level Denver Center
Sat 03:25:52 PM 39.2433 -100.3953 245° Southwest 406 467 38,400 732 Climbing Denver Center
Sat 03:26:54 PM 39.1867 -100.5444 244° Southwest 413 475 39,500 780 Climbing Denver Center
Sat 03:27:55 PM 39.1406 -100.6725 245° Southwest 411 473 40,000 244 Climbing Denver Center
Sat 03:28:57 PM 39.0858 -100.8208 245° Southwest 410 472 40,000  Level Denver Center
Sat 03:29:58 PM 39.0381 -100.9453 244° Southwest 406 467 40,000  Level Denver Center
Sat 03:31:00 PM 38.9861 -101.0842 244° Southwest 413 475 40,000  Level Denver Center
Sat 03:32:01 PM 38.9394 -101.2092 244° Southwest 408 470 40,000  Level Denver Center
Sat 03:33:03 PM 38.8847 -101.3533 244° Southwest 404 465 40,000  Level Denver Center
Sat 03:34:04 PM 38.8378 -101.4769 244° Southwest 403 464 40,000  Level Denver Center
Sat 03:35:05 PM 38.7828 -101.6217 244° Southwest 406 467 40,000  Level Denver Center
Sat 03:36:07 PM 38.7353 -101.7447 244° Southwest 404 465 40,000  Level Denver Center
Sat 03:37:08 PM 38.6872 -101.8689 244° Southwest 407 468 40,000  Level Denver Center
Sat 03:38:10 PM 38.6314 -102.0122 244° Southwest 405 466 40,000  Level Denver Center
Sat 03:39:11 PM 38.5825 -102.1369 243° Southwest 410 472 40,000  Level Denver Center
Sat 03:40:12 PM 38.5283 -102.2806 244° Southwest 404 465 40,000  Level Denver Center
Sat 03:41:14 PM 38.4789 -102.4039 243° Southwest 407 468 40,000  Level Denver Center
Sat 03:42:15 PM 38.4222 -102.5478 243° Southwest 408 470 40,000  Level Denver Center
Sat 03:43:17 PM 38.3739 -102.6719 244° Southwest 410 472 40,000  Level Denver Center
Sat 03:44:18 PM 38.3244 -102.7964 243° Southwest 410 472 40,000  Level Denver Center
Sat 03:45:20 PM 38.2669 -102.9414 243° Southwest 412 474 40,000  Level Denver Center
Sat 03:46:21 PM 38.2169 -103.0647 243° Southwest 410 472 40,000  Level Denver Center
Sat 03:47:22 PM 38.1647 -103.1953 243° Southwest 408 470 40,000  Level Denver Center
Sat 03:48:24 PM 38.1067 -103.3386 243° Southwest 409 471 40,000  Level Denver Center
Sat 03:49:25 PM 38.0578 -103.4597 243° Southwest 405 466 40,000  Level Denver Center
Sat 03:50:27 PM 38.0089 -103.5806 243° Southwest 401 461 40,000  Level Denver Center
Sat 03:51:28 PM 37.9517 -103.7211 243° Southwest 403 464 40,000  Level Denver Center
Sat 03:52:29 PM 37.9019 -103.8408 242° Southwest 403 464 40,000  Level Denver Center
Sat 03:53:31 PM 37.8444 -103.9800 242° Southwest 402 463 40,000  Level Denver Center
Sat 03:54:32 PM 37.7947 -104.0989 242° Southwest 404 465 40,000  Level Denver Center
Sat 03:55:34 PM 37.7358 -104.2381 242° Southwest 405 466 40,000  Level Denver Center
Sat 03:56:35 PM 37.6864 -104.3589 243° Southwest 408 470 40,000  Level Denver Center
Sat 03:57:36 PM 37.6269 -104.5014 242° Southwest 413 475 40,000  Level Denver Center
Sat 03:58:38 PM 37.5747 -104.6239 242° Southwest 416 479 40,000  Level Denver Center
Sat 03:59:39 PM 37.5239 -104.7464 242° Southwest 415 478 40,000  Level Denver Center
Sat 04:00:41 PM 37.4619 -104.8903 242° Southwest 419 482 40,000  Level Denver Center
Sat 04:01:42 PM 37.4103 -105.0114 242° Southwest 414 476 40,000  Level Denver Center
Sat 04:02:43 PM 37.3503 -105.1528 242° Southwest 410 472 40,000  Level Denver Center
Sat 04:03:45 PM 37.2953 -105.2831 242° Southwest 415 478 40,000  Level Denver Center
Sat 04:04:46 PM 37.2436 -105.3950 240° Southwest 413 475 40,000  Level Denver Center
Sat 04:05:59 PM 37.1828 -105.5361 242° Southwest 412 474 40,000  Level Denver Center
Sat 04:07:01 PM 37.1153 -105.6956 242° Southwest 405 466 40,000  Level Denver Center
Sat 04:08:02 PM 37.0622 -105.8164 241° Southwest 411 473 40,000  Level Denver Center
Sat 04:09:04 PM 37.0097 -105.9367 241° Southwest 411 473 40,000  Level Denver Center
Sat 04:10:05 PM 36.9467 -106.0769 241° Southwest 414 476 40,000  Level Denver Center
Sat 04:11:06 PM 36.8911 -106.2044 241° Southwest 412 474 40,000  Level Denver Center
Sat 04:12:08 PM 36.8381 -106.3231 241° Southwest 410 472 40,000  Level Denver Center
Sat 04:13:09 PM 36.7772 -106.4608 241° Southwest 407 468 40,000  Level Denver Center
Sat 04:14:10 PM 36.7336 -106.5597 241° Southwest 407 468 40,000  Level Denver Center
Sat 04:15:12 PM 36.6717 -106.6969 241° Southwest 406 467 40,000  Level Denver Center
Sat 04:16:13 PM 36.6117 -106.8336 241° Southwest 403 464 40,000  Level Denver Center
Sat 04:17:15 PM 36.5578 -106.9497 240° Southwest 404 465 40,000  Level Denver Center
Sat 04:18:16 PM 36.4975 -107.0844 241° Southwest 401 461 40,000  Level Denver Center
Sat 04:19:17 PM 36.4450 -107.1992 240° Southwest 399 459 40,000  Level Denver Center
Sat 04:20:19 PM 36.3931 -107.3144 241° Southwest 400 460 40,000  Level Denver Center
Sat 04:21:29 PM 36.3211 -107.4678 240° Southwest 400 460 40,000  Level Albuquerque Center
Sat 04:22:30 PM 36.2575 -107.5769 234° Southwest 405 466 40,000  Level Albuquerque Center
Sat 04:23:32 PM 36.1919 -107.6847 233° Southwest 408 470 40,000  Level Albuquerque Center
Sat 04:24:33 PM 36.1167 -107.8142 234° Southwest 412 474 40,000  Level Albuquerque Center
Sat 04:25:35 PM 36.0508 -107.9247 234° Southwest 415 478 40,000  Level Albuquerque Center
Sat 04:26:37 PM 35.9739 -108.0533 234° Southwest 416 479 40,000  Level Albuquerque Center
Sat 04:27:38 PM 35.9075 -108.1622 233° Southwest 415 478 40,000  Level Albuquerque Center
Sat 04:28:40 PM 35.8431 -108.2708 234° Southwest 411 473 40,000  Level Albuquerque Center
Sat 04:29:41 PM 35.7686 -108.3942 233° Southwest 403 464 40,000  Level Albuquerque Center
Sat 04:30:43 PM 35.7050 -108.5003 234° Southwest 401 461 40,000  Level Albuquerque Center
Sat 04:31:45 PM 35.6297 -108.6228 233° Southwest 399 459 40,000  Level Albuquerque Center
Sat 04:32:46 PM 35.5658 -108.7281 233° Southwest 400 460 40,000  Level Albuquerque Center
Sat 04:33:48 PM 35.5022 -108.8331 233° Southwest 399 459 40,000  Level Albuquerque Center
Sat 04:34:50 PM 35.4211 -108.9475 229° Southwest 398 458 40,000  Level Albuquerque Center
Sat 04:35:51 PM 35.3464 -109.0436 226° Southwest 405 466 40,000  Level Albuquerque Center
Sat 04:36:53 PM 35.2603 -109.1542 226° Southwest 402 463 40,000  Level Albuquerque Center
Sat 04:37:55 PM 35.1864 -109.2497 227° Southwest 402 463 40,000  Level Albuquerque Center
Sat 04:38:56 PM 35.1094 -109.3481 226° Southwest 413 475 40,000  Level Albuquerque Center
Sat 04:39:58 PM 35.0222 -109.4614 227° Southwest 412 474 40,000 -242 Level Albuquerque Center
Sat 04:41:00 PM 34.9450 -109.5542 225° Southwest 408 470 39,500 -1,548 Descending Albuquerque Center
Sat 04:42:02 PM 34.8578 -109.6656 226° Southwest 405 466 36,800 -1,707 Descending Albuquerque Center
Sat 04:43:03 PM 34.7844 -109.7594 226° Southwest 401 461 36,000 -683 Descending Albuquerque Center
Sat 04:44:05 PM 34.7042 -109.8717 229° Southwest 395 455 35,400 -726 Descending Albuquerque Center
Sat 04:45:07 PM 34.6625 -109.9825 245° Southwest 381 438 34,500 -927 Descending Albuquerque Center
Sat 04:46:08 PM 34.6133 -110.1100 245° Southwest 374 430 33,500 -976 Descending Albuquerque Center
Sat 04:47:10 PM 34.5739 -110.2306 248° West 392 451 32,500 -919 Descending Albuquerque Center
Sat 04:48:12 PM 34.5281 -110.3389 243° Southwest 382 440 31,600 -1,016 Descending Albuquerque Center
Sat 04:49:14 PM 34.4833 -110.4683 247° West 392 451 30,400 -1,073 Descending Albuquerque Center
Sat 04:50:15 PM 34.4411 -110.5794 245° Southwest 371 427 29,400 -1,220 Descending Albuquerque Center
Sat 04:51:17 PM 34.4006 -110.6889 246° West 359 413 27,900 -1,694 Descending Albuquerque Center
Sat 04:52:19 PM 34.3536 -110.7914 241° Southwest 352 405 25,900 -1,951 Descending Albuquerque Center
Sat 04:53:20 PM 34.2903 -110.8794 229° Southwest 350 403 23,900 -2,146 Descending Albuquerque Center
Sat 04:54:22 PM 34.2083 -110.9839 227° Southwest 353 406 21,500 -2,177 Descending Albuquerque Center
Sat 04:55:24 PM 34.1406 -111.0717 227° Southwest 356 410 19,400 -1,935 Descending Albuquerque Center
Sat 04:56:26 PM 34.0747 -111.1578 227° Southwest 352 405 17,500 -1,902 Descending Albuquerque Center
Sat 04:57:27 PM 34.0092 -111.2419 227° Southwest 347 399 15,500 -1,902 Descending Albuquerque Center
Sat 04:58:29 PM 33.9456 -111.3239 227° Southwest 336 387 13,600 -1,548 Descending Albuquerque Center
Sat 04:59:31 PM 33.8814 -111.4042 226° Southwest 332 382 12,300 -1,258 Descending Albuquerque Center
Sat 05:00:33 PM 33.8117 -111.4656 216° Southwest 311 358 11,000 -1,113 Descending Albuquerque Center
Sat 05:01:35 PM 33.7436 -111.5236 215° Southwest 299 344 10,000 -1,268 Descending Albuquerque Center
Sat 05:02:36 PM 33.6669 -111.5894 216° Southwest 282 325 8,400 -1,610 Descending Albuquerque Center
Sat 05:03:38 PM 33.6053 -111.6428 216° Southwest 274 315 6,700 -1,500 Descending Albuquerque Center
Sat 05:04:40 PM 33.5422 -111.6972 216° Southwest 276 318 5,300 -1,016 Descending Albuquerque Center
Sat 05:05:42 PM 33.4956 -111.7644 230° Southwest 266 306 4,600 -634 Descending Albuquerque Center
Sat 05:06:43 PM 33.4586 -111.8347 238° Southwest 251 289 4,000 -878 Descending Albuquerque Center
Sat 05:07:45 PM 33.4322 -111.8917 241° Southwest 199 229 2,800 -871 Descending Albuquerque Center
Sat 05:08:47 PM 33.4317 -111.9411 269° West 152 175 2,200 -780 Descending Albuquerque Center
Sat 05:09:48 PM 33.4306 -111.9947 269° West 139 160 1,200 -984 Descending Albuquerque Center
Sat 05:11:00 PM 33.4343 -112.0116 289° West  Level Estimated
Sat 05:18:00 PM 33.4343 -112.0116 90° East  Level Estimated

Login

Don't have an account? Register now (free) for customized features, flight alerts, and more!